createdAt,value
2019-05-11T00:00:35.921Z,11.01
2019-05-11T00:03:05.876Z,11.05
2019-05-11T00:05:35.704Z,11.02
2019-05-11T00:08:08.320Z,10.95
2019-05-11T00:10:38.044Z,10.97
2019-05-11T00:13:07.804Z,10.89
2019-05-11T00:15:37.622Z,10.78
2019-05-11T00:18:07.590Z,10.85
2019-05-11T00:20:37.447Z,10.84
2019-05-11T00:23:07.207Z,10.86
2019-05-11T00:25:36.962Z,10.82
2019-05-11T00:28:06.933Z,10.89
2019-05-11T00:30:36.662Z,10.83
2019-05-11T00:33:06.515Z,10.87
2019-05-11T00:35:36.262Z,10.86
2019-05-11T00:38:06.044Z,10.79
2019-05-11T00:40:35.786Z,10.83
2019-05-11T00:43:05.984Z,10.78
2019-05-11T00:45:35.685Z,10.82
2019-05-11T00:48:05.586Z,10.84
2019-05-11T00:50:39.535Z,10.96
2019-05-11T00:53:06.793Z,10.98
2019-05-11T00:55:36.639Z,10.98
2019-05-11T00:58:06.558Z,10.85
2019-05-11T01:00:36.575Z,10.96
2019-05-11T01:03:06.454Z,10.95
2019-05-11T01:05:36.245Z,10.79
2019-05-11T01:08:06.229Z,10.76
2019-05-11T01:10:42.084Z,11.04
2019-05-11T01:13:07.543Z,10.96
2019-05-11T01:15:37.337Z,10.85
2019-05-11T01:18:06.998Z,10.90
2019-05-11T01:20:36.747Z,10.92
2019-05-11T01:23:06.562Z,10.91
2019-05-11T01:25:36.349Z,10.83
2019-05-11T01:28:06.077Z,10.87
2019-05-11T01:30:38.683Z,10.83
2019-05-11T01:33:07.392Z,10.85
2019-05-11T01:35:37.105Z,10.82
2019-05-11T01:38:06.899Z,10.90
2019-05-11T01:40:36.555Z,10.89
2019-05-11T01:43:06.358Z,10.97
2019-05-11T01:45:36.822Z,10.86
2019-05-11T01:48:06.698Z,10.96
2019-05-11T01:50:36.584Z,10.94
2019-05-11T01:53:06.494Z,10.98
2019-05-11T01:55:36.298Z,11.05
2019-05-11T01:58:06.121Z,11.02
2019-05-11T02:00:35.885Z,10.96
2019-05-11T02:03:05.672Z,10.94
2019-05-11T02:05:35.593Z,10.94
2019-05-11T02:08:05.661Z,11.01
2019-05-11T02:10:35.431Z,10.84
2019-05-11T02:13:05.196Z,10.84
2019-05-11T02:15:34.959Z,10.85
2019-05-11T02:18:04.796Z,10.90
2019-05-11T02:20:34.512Z,10.91
2019-05-11T02:23:04.329Z,10.96
2019-05-11T02:25:34.130Z,10.93
2019-05-11T02:28:03.950Z,10.95
2019-05-11T02:30:33.878Z,10.93
2019-05-11T02:33:03.743Z,10.85
2019-05-11T02:35:33.436Z,10.87
2019-05-11T02:38:03.182Z,10.83
2019-05-11T02:40:33.138Z,11.05
2019-05-11T02:43:03.010Z,11.06
2019-05-11T02:45:42.212Z,11.01
2019-05-11T02:48:12.390Z,11.01
2019-05-11T02:50:42.726Z,10.89
2019-05-11T02:53:12.508Z,10.96
2019-05-11T02:55:42.359Z,10.86
2019-05-11T02:58:12.292Z,10.95
2019-05-11T03:00:44.675Z,10.86
2019-05-11T03:03:14.612Z,10.74
2019-05-11T03:05:44.645Z,10.86
2019-05-11T03:08:14.614Z,10.78
2019-05-11T03:10:44.405Z,10.75
2019-05-11T03:13:14.264Z,10.85
2019-05-11T03:15:44.091Z,11.03
2019-05-11T03:18:13.935Z,10.97
2019-05-11T03:20:43.810Z,10.86
2019-05-11T03:23:13.526Z,10.76
2019-05-11T03:25:43.377Z,10.79
2019-05-11T03:28:13.131Z,10.82
2019-05-11T03:30:42.924Z,10.83
2019-05-11T03:33:12.721Z,10.95
2019-05-11T03:35:42.510Z,10.89
2019-05-11T03:38:12.192Z,10.84
2019-05-11T03:40:41.905Z,10.92
2019-05-11T03:43:11.804Z,10.90
2019-05-11T03:45:41.725Z,10.91
2019-05-11T03:48:11.467Z,10.92
2019-05-11T03:50:41.207Z,10.92
2019-05-11T03:53:11.193Z,10.83
2019-05-11T03:55:40.943Z,10.78
2019-05-11T03:58:10.633Z,10.80
2019-05-11T04:00:40.333Z,10.80
2019-05-11T04:03:10.020Z,10.80
2019-05-11T04:05:39.713Z,10.80
2019-05-11T04:08:09.653Z,10.93
2019-05-11T04:10:39.450Z,10.88
2019-05-11T04:13:09.189Z,10.94
2019-05-11T04:15:38.862Z,10.86
2019-05-11T04:18:08.727Z,10.92
2019-05-11T04:20:38.434Z,10.98
2019-05-11T04:23:08.216Z,10.95
2019-05-11T04:25:37.910Z,10.99
2019-05-11T04:28:07.695Z,10.96
2019-05-11T04:30:37.338Z,10.93
2019-05-11T04:33:07.110Z,11.01
2019-05-11T04:35:36.947Z,11.01
2019-05-11T04:38:06.703Z,10.98
2019-05-11T04:40:36.468Z,10.88
2019-05-11T04:43:06.252Z,10.81
2019-05-11T04:45:36.048Z,10.81
2019-05-11T04:48:06.234Z,10.69
2019-05-11T04:50:35.997Z,10.82
2019-05-11T04:53:05.813Z,10.81
2019-05-11T04:55:35.558Z,10.69
2019-05-11T04:58:05.452Z,10.64
2019-05-11T05:00:35.251Z,10.71
2019-05-11T05:03:05.034Z,10.83
2019-05-11T05:05:34.787Z,10.81
2019-05-11T05:08:09.746Z,10.80
2019-05-11T05:10:36.040Z,10.73
2019-05-11T05:13:10.595Z,10.80
2019-05-11T05:15:37.218Z,10.64
2019-05-11T05:18:06.974Z,10.66
2019-05-11T05:20:36.674Z,10.70
2019-05-11T05:23:06.652Z,10.64
2019-05-11T05:25:36.503Z,10.69
2019-05-11T05:28:06.434Z,10.60
2019-05-11T05:30:36.220Z,10.54
2019-05-11T05:33:06.215Z,10.55
2019-05-11T05:35:36.120Z,10.61
2019-05-11T05:38:05.976Z,10.59
2019-05-11T05:40:35.671Z,10.60
2019-05-11T05:43:05.633Z,10.69
2019-05-11T05:45:35.453Z,10.65
2019-05-11T05:48:05.411Z,10.68
2019-05-11T05:50:35.237Z,10.69
2019-05-11T05:53:05.238Z,10.75
2019-05-11T05:55:35.004Z,10.75
2019-05-11T05:58:04.842Z,10.75
2019-05-11T06:00:34.661Z,10.60
2019-05-11T06:03:04.451Z,10.71
2019-05-11T06:05:34.644Z,10.82
2019-05-11T06:08:04.483Z,10.84
2019-05-11T06:10:34.375Z,11.01
2019-05-11T06:13:04.070Z,11.07
2019-05-11T06:15:33.889Z,11.19
2019-05-11T06:18:03.603Z,11.25
2019-05-11T06:20:33.364Z,11.14
2019-05-11T06:23:03.252Z,11.22
2019-05-11T06:25:33.048Z,11.14
2019-05-11T06:28:02.903Z,11.10
2019-05-11T06:30:32.578Z,11.06
2019-05-11T06:33:02.333Z,11.08
2019-05-11T06:35:32.066Z,11.04
2019-05-11T06:38:01.902Z,11.24
2019-05-11T06:40:31.670Z,11.12
2019-05-11T06:43:01.372Z,11.16
2019-05-11T06:45:31.245Z,11.04
2019-05-11T06:48:00.994Z,11.18
2019-05-11T06:50:30.628Z,11.36
2019-05-11T06:53:00.410Z,11.50
2019-05-11T06:55:30.205Z,11.55
2019-05-11T06:57:59.875Z,11.56
2019-05-11T07:00:30.265Z,11.44
2019-05-11T07:03:00.075Z,11.52
2019-05-11T07:05:29.797Z,11.52
2019-05-11T07:07:59.502Z,11.27
2019-05-11T07:10:29.289Z,11.26
2019-05-11T07:12:59.174Z,11.41
2019-05-11T07:15:29.156Z,11.65
2019-05-11T07:17:58.985Z,11.68
2019-05-11T07:20:28.773Z,11.55
2019-05-11T07:22:58.494Z,11.57
2019-05-11T07:25:28.298Z,11.57
2019-05-11T07:27:58.176Z,11.42
2019-05-11T07:30:27.878Z,11.67
2019-05-11T07:32:58.152Z,11.85
2019-05-11T07:35:28.975Z,11.61
2019-05-11T07:37:58.743Z,11.77
2019-05-11T07:40:28.664Z,12.00
2019-05-11T07:42:59.074Z,12.25
2019-05-11T07:45:28.975Z,12.33
2019-05-11T07:47:59.130Z,12.26
2019-05-11T07:50:28.966Z,12.21
2019-05-11T07:52:59.052Z,11.93
2019-05-11T07:55:29.259Z,11.96
2019-05-11T07:57:59.031Z,12.18
2019-05-11T08:00:29.121Z,12.32
2019-05-11T08:02:58.815Z,12.44
2019-05-11T08:05:28.595Z,12.67
2019-05-11T08:07:59.573Z,12.67
2019-05-11T08:10:29.655Z,12.67
2019-05-11T08:12:59.352Z,12.79
2019-05-11T08:15:29.106Z,12.62
2019-05-11T08:17:58.935Z,12.67
2019-05-11T08:20:28.590Z,12.92
2019-05-11T08:22:58.808Z,12.92
2019-05-11T08:25:28.882Z,12.74
2019-05-11T08:27:59.008Z,12.60
2019-05-11T08:30:29.020Z,12.65
2019-05-11T08:32:58.707Z,12.86
2019-05-11T08:35:31.134Z,13.03
2019-05-11T08:37:59.850Z,13.14
2019-05-11T08:40:29.601Z,13.12
2019-05-11T08:42:59.360Z,12.79
2019-05-11T08:45:29.230Z,12.96
2019-05-11T08:47:58.944Z,13.22
2019-05-11T08:50:28.738Z,13.10
2019-05-11T08:52:58.597Z,13.18
2019-05-11T08:55:28.998Z,13.44
2019-05-11T08:57:59.403Z,13.73
2019-05-11T09:00:29.130Z,13.34
2019-05-11T09:02:59.060Z,13.46
2019-05-11T09:05:29.045Z,13.75
2019-05-11T09:07:58.873Z,13.71
2019-05-11T09:10:28.611Z,13.65
2019-05-11T09:12:59.073Z,13.50
2019-05-11T09:15:36.311Z,13.48
2019-05-11T09:18:00.985Z,13.42
2019-05-11T09:20:30.731Z,13.61
2019-05-11T09:23:00.437Z,13.62
2019-05-11T09:25:30.116Z,13.66
2019-05-11T09:27:59.911Z,13.99
2019-05-11T09:30:29.834Z,13.73
2019-05-11T09:32:59.795Z,13.82
2019-05-11T09:35:29.467Z,14.15
2019-05-11T09:37:59.273Z,13.96
2019-05-11T09:40:29.031Z,14.00
2019-05-11T09:42:59.120Z,13.83
2019-05-11T09:45:28.942Z,13.63
2019-05-11T09:47:58.728Z,13.61
2019-05-11T09:50:28.604Z,13.80
2019-05-11T09:52:58.371Z,13.79
2019-05-11T09:55:28.469Z,14.07
2019-05-11T09:57:58.245Z,13.87
2019-05-11T10:00:29.645Z,13.86
2019-05-11T10:02:59.737Z,13.79
2019-05-11T10:05:29.558Z,13.67
2019-05-11T10:07:59.798Z,13.86
2019-05-11T10:10:29.550Z,13.95
2019-05-11T10:12:59.329Z,14.31
2019-05-11T10:15:29.105Z,14.12
2019-05-11T10:17:59.101Z,13.82
2019-05-11T10:20:29.096Z,14.11
2019-05-11T10:22:58.858Z,14.33
2019-05-11T10:25:28.935Z,14.41
2019-05-11T10:27:58.800Z,14.52
2019-05-11T10:30:28.767Z,14.25
2019-05-11T10:32:58.557Z,14.25
2019-05-11T10:35:29.008Z,14.43
2019-05-11T10:37:58.892Z,14.29
2019-05-11T10:40:28.639Z,14.45
2019-05-11T10:42:59.121Z,14.38
2019-05-11T10:45:29.209Z,14.68
2019-05-11T10:48:01.079Z,14.40
2019-05-11T10:50:30.580Z,14.54
2019-05-11T10:53:00.641Z,14.73
2019-05-11T10:55:30.559Z,14.96
2019-05-11T10:58:00.414Z,15.43
2019-05-11T11:00:30.496Z,15.23
2019-05-11T11:03:00.265Z,15.08
2019-05-11T11:05:30.217Z,14.85
2019-05-11T11:07:59.874Z,15.02
2019-05-11T11:10:29.679Z,15.05
2019-05-11T11:12:59.602Z,14.98
2019-05-11T11:15:29.577Z,15.28
2019-05-11T11:17:59.229Z,15.26
2019-05-11T11:20:28.997Z,14.86
2019-05-11T11:22:58.856Z,15.15
2019-05-11T11:25:28.658Z,15.35
2019-05-11T11:27:58.682Z,15.07
2019-05-11T11:30:28.776Z,15.00
2019-05-11T11:32:58.958Z,15.09
2019-05-11T11:35:28.719Z,14.86
2019-05-11T11:37:59.371Z,14.80
2019-05-11T11:40:29.177Z,15.36
2019-05-11T11:42:59.253Z,15.35
2019-05-11T11:45:29.083Z,15.17
2019-05-11T11:47:59.138Z,15.25
2019-05-11T11:50:29.061Z,15.13
2019-05-11T11:52:59.561Z,15.17
2019-05-11T11:55:29.363Z,15.49
2019-05-11T11:57:59.116Z,16.01
2019-05-11T12:00:29.148Z,16.10
2019-05-11T12:02:58.857Z,15.75
2019-05-11T12:05:28.916Z,15.23
2019-05-11T12:07:58.693Z,15.06
2019-05-11T12:10:28.891Z,14.97
2019-05-11T12:13:00.061Z,14.90
2019-05-11T12:15:29.995Z,14.66
2019-05-11T12:17:59.869Z,14.47
2019-05-11T12:20:29.745Z,14.49
2019-05-11T12:22:59.702Z,14.84
2019-05-11T12:25:29.860Z,14.99
2019-05-11T12:27:59.958Z,15.56
2019-05-11T12:30:30.477Z,15.58
2019-05-11T12:33:00.173Z,15.55
2019-05-11T12:35:30.119Z,15.30
2019-05-11T12:38:00.349Z,14.93
2019-05-11T12:40:31.997Z,14.97
2019-05-11T12:43:01.915Z,15.51
2019-05-11T12:45:31.716Z,15.47
2019-05-11T12:48:02.102Z,15.29
2019-05-11T12:50:31.873Z,15.16
2019-05-11T12:53:01.837Z,15.18
2019-05-11T12:55:31.662Z,15.15
2019-05-11T12:58:04.528Z,15.18
2019-05-11T13:00:39.386Z,15.36
2019-05-11T13:03:09.171Z,15.66
2019-05-11T13:05:39.169Z,15.72
2019-05-11T13:08:09.431Z,15.48
2019-05-11T13:10:39.216Z,15.73
2019-05-11T13:13:09.094Z,15.60
2019-05-11T13:15:39.014Z,15.37
2019-05-11T13:18:08.800Z,15.18
2019-05-11T13:20:38.666Z,15.66
2019-05-11T13:23:08.309Z,15.96
2019-05-11T13:25:38.805Z,16.19
2019-05-11T13:28:09.336Z,16.19
2019-05-11T13:30:39.045Z,15.76
2019-05-11T13:33:08.821Z,15.82
2019-05-11T13:35:38.486Z,15.75
2019-05-11T13:38:08.813Z,15.92
2019-05-11T13:40:38.705Z,15.63
2019-05-11T13:43:08.565Z,15.73
2019-05-11T13:45:38.873Z,15.72
2019-05-11T13:48:08.840Z,15.70
2019-05-11T13:50:38.838Z,15.53
2019-05-11T13:53:08.669Z,15.53
2019-05-11T13:55:38.936Z,15.47
2019-05-11T13:58:08.915Z,15.62
2019-05-11T14:00:38.756Z,15.63
2019-05-11T14:03:09.147Z,15.74
2019-05-11T14:05:38.932Z,16.27
2019-05-11T14:08:08.616Z,16.43
2019-05-11T14:10:43.317Z,16.16
2019-05-11T14:13:13.064Z,15.71
2019-05-11T14:15:42.772Z,15.72
2019-05-11T14:18:12.447Z,15.67
2019-05-11T14:20:42.130Z,15.60
2019-05-11T14:23:11.994Z,15.75
2019-05-11T14:25:42.004Z,15.79
2019-05-11T14:28:12.418Z,15.93
2019-05-11T14:30:42.493Z,16.43
2019-05-11T14:33:12.340Z,16.92
2019-05-11T14:35:42.085Z,16.61
2019-05-11T14:38:11.852Z,16.17
2019-05-11T14:40:41.639Z,15.92
2019-05-11T14:43:11.408Z,15.63
2019-05-11T14:45:41.147Z,15.59
2019-05-11T14:48:23.082Z,15.34
2019-05-11T14:50:42.307Z,15.30
2019-05-11T14:53:12.049Z,15.40
2019-05-11T14:55:41.764Z,16.29
2019-05-11T14:58:11.402Z,16.48
2019-05-11T15:00:41.114Z,16.97
2019-05-11T15:03:10.857Z,17.67
2019-05-11T15:05:41.586Z,18.40
2019-05-11T15:08:11.503Z,18.18
2019-05-11T15:10:41.275Z,17.09
2019-05-11T15:13:11.006Z,16.81
2019-05-11T15:15:41.039Z,16.49
2019-05-11T15:18:12.614Z,16.20
2019-05-11T15:20:42.416Z,16.23
2019-05-11T15:23:12.196Z,16.31
2019-05-11T15:25:41.914Z,16.12
2019-05-11T15:28:13.297Z,16.14
2019-05-11T15:30:43.103Z,16.44
2019-05-11T15:33:13.047Z,16.48
2019-05-11T15:35:43.652Z,16.67
2019-05-11T15:38:15.024Z,16.90
2019-05-11T15:40:48.775Z,16.58
2019-05-11T15:43:18.759Z,16.37
2019-05-11T15:45:48.838Z,16.57
2019-05-11T15:48:18.990Z,16.39
2019-05-11T15:50:48.823Z,16.11
2019-05-11T15:53:18.719Z,16.22
2019-05-11T15:55:48.646Z,16.06
2019-05-11T15:58:21.471Z,15.97
2019-05-11T16:00:50.402Z,15.83
2019-05-11T16:03:20.112Z,15.77
2019-05-11T16:05:50.034Z,15.77
2019-05-11T16:08:19.688Z,15.69
2019-05-11T16:10:49.334Z,15.85
2019-05-11T16:13:19.045Z,15.88
2019-05-11T16:15:48.732Z,15.92
2019-05-11T16:18:19.010Z,16.01
2019-05-11T16:20:50.512Z,16.15
2019-05-11T16:23:20.466Z,16.19
2019-05-11T16:25:50.272Z,16.22
2019-05-11T16:28:20.079Z,16.09
2019-05-11T16:30:49.871Z,16.05
2019-05-11T16:33:19.564Z,16.08
2019-05-11T16:35:49.454Z,16.24
2019-05-11T16:38:19.221Z,16.27
2019-05-11T16:40:48.979Z,16.18
2019-05-11T16:43:19.389Z,16.22
2019-05-11T16:45:51.119Z,16.19
2019-05-11T16:48:20.780Z,16.11
2019-05-11T16:50:50.562Z,16.07
2019-05-11T16:53:20.278Z,16.10
2019-05-11T16:55:50.031Z,16.05
2019-05-11T16:58:20.188Z,15.92
2019-05-11T17:00:50.033Z,15.90
2019-05-11T17:03:19.975Z,15.85
2019-05-11T17:05:49.620Z,15.79
2019-05-11T17:08:19.482Z,15.64
2019-05-11T17:10:59.330Z,15.67
2019-05-11T17:13:29.279Z,15.69
2019-05-11T17:15:58.963Z,15.60
2019-05-11T17:18:28.812Z,15.55
2019-05-11T17:20:58.696Z,15.66
2019-05-11T17:23:30.993Z,15.63
2019-05-11T17:26:00.066Z,15.54
2019-05-11T17:28:29.923Z,15.56
2019-05-11T17:31:02.796Z,15.52
2019-05-11T17:33:31.331Z,15.53
2019-05-11T17:36:00.994Z,15.53
2019-05-11T17:38:30.682Z,15.48
2019-05-11T17:41:00.430Z,15.54
2019-05-11T17:43:30.123Z,15.48
2019-05-11T17:45:59.856Z,15.51
2019-05-11T17:48:29.888Z,15.42
2019-05-11T17:50:59.564Z,15.41
2019-05-11T17:53:29.400Z,15.36
2019-05-11T17:55:59.262Z,15.26
2019-05-11T17:58:29.183Z,15.35
2019-05-11T18:00:59.104Z,15.35
2019-05-11T18:03:28.832Z,15.34
2019-05-11T18:05:59.102Z,15.34
2019-05-11T18:08:30.851Z,15.31
2019-05-11T18:11:00.495Z,15.28
2019-05-11T18:13:30.213Z,15.08
2019-05-11T18:15:59.984Z,14.90
2019-05-11T18:18:29.926Z,14.79
2019-05-11T18:20:59.675Z,14.76
2019-05-11T18:23:29.462Z,14.76
2019-05-11T18:25:59.254Z,14.68
2019-05-11T18:28:29.382Z,14.67
2019-05-11T18:30:59.204Z,14.65
2019-05-11T18:33:28.989Z,14.60
2019-05-11T18:35:58.786Z,14.49
2019-05-11T18:38:28.572Z,14.45
2019-05-11T18:40:58.440Z,14.39
2019-05-11T18:43:28.311Z,14.36
2019-05-11T18:45:58.440Z,14.28
2019-05-11T18:48:29.363Z,14.29
2019-05-11T18:50:59.556Z,14.20
2019-05-11T18:53:29.296Z,14.18
2019-05-11T18:55:59.273Z,14.07
2019-05-11T18:58:29.110Z,13.99
2019-05-11T19:00:58.936Z,13.89
2019-05-11T19:03:28.647Z,13.83
2019-05-11T19:05:58.469Z,13.75
2019-05-11T19:08:28.230Z,13.71
2019-05-11T19:10:58.151Z,13.59
2019-05-11T19:13:28.387Z,13.65
2019-05-11T19:15:58.520Z,13.57
2019-05-11T19:18:28.410Z,13.50
2019-05-11T19:20:58.706Z,13.40
2019-05-11T19:23:28.961Z,13.25
2019-05-11T19:25:58.685Z,13.22
2019-05-11T19:28:28.431Z,13.22
2019-05-11T19:30:59.166Z,13.12
2019-05-11T19:33:29.044Z,13.08
2019-05-11T19:35:58.843Z,13.03
2019-05-11T19:38:28.546Z,13.00
2019-05-11T19:40:58.885Z,12.92
2019-05-11T19:43:28.933Z,12.85
2019-05-11T19:45:58.766Z,12.69
2019-05-11T19:48:28.697Z,12.66
2019-05-11T19:51:07.571Z,12.61
2019-05-11T19:53:30.267Z,12.60
2019-05-11T19:56:00.115Z,12.53
2019-05-11T19:58:29.893Z,12.40
2019-05-11T20:00:59.770Z,12.41
2019-05-11T20:03:29.576Z,12.36
2019-05-11T20:05:59.419Z,12.41
2019-05-11T20:08:29.263Z,12.42
2019-05-11T20:10:59.174Z,12.31
2019-05-11T20:13:28.814Z,12.17
2019-05-11T20:15:58.533Z,12.08
2019-05-11T20:18:28.867Z,12.06
2019-05-11T20:20:58.802Z,11.98
2019-05-11T20:23:28.533Z,11.96
2019-05-11T20:25:58.375Z,11.91
2019-05-11T20:28:28.623Z,11.88
2019-05-11T20:30:58.968Z,11.86
2019-05-11T20:33:28.814Z,11.81
2019-05-11T20:35:58.636Z,11.72
2019-05-11T20:38:28.304Z,11.62
2019-05-11T20:40:58.214Z,11.66
2019-05-11T20:43:28.144Z,11.68
2019-05-11T20:45:57.873Z,11.62
2019-05-11T20:48:27.936Z,11.58
2019-05-11T20:50:57.898Z,11.49
2019-05-11T20:53:28.678Z,11.41
2019-05-11T20:55:58.763Z,11.38
2019-05-11T20:58:30.103Z,11.29
2019-05-11T21:00:59.846Z,11.28
2019-05-11T21:03:29.634Z,11.17
2019-05-11T21:05:59.380Z,11.15
2019-05-11T21:08:29.097Z,11.10
2019-05-11T21:10:58.902Z,11.07
2019-05-11T21:13:28.589Z,11.06
2019-05-11T21:15:59.272Z,10.99
2019-05-11T21:18:29.068Z,11.01
2019-05-11T21:20:58.744Z,10.91
2019-05-11T21:23:28.960Z,10.82
2019-05-11T21:25:58.986Z,10.78
2019-05-11T21:28:30.717Z,10.76
2019-05-11T21:31:00.449Z,10.75
2019-05-11T21:33:30.294Z,10.70
2019-05-11T21:36:00.723Z,10.71
2019-05-11T21:38:31.834Z,10.68
2019-05-11T21:41:01.847Z,10.65
2019-05-11T21:43:31.507Z,10.59
2019-05-11T21:46:01.458Z,10.57
2019-05-11T21:48:31.190Z,10.51
2019-05-11T21:51:01.023Z,10.43
2019-05-11T21:53:30.675Z,10.41
2019-05-11T21:56:00.401Z,10.34
2019-05-11T21:58:30.308Z,10.36
2019-05-11T22:01:00.232Z,10.30
2019-05-11T22:03:30.032Z,10.26
2019-05-11T22:05:59.767Z,10.25
2019-05-11T22:08:29.597Z,10.26
2019-05-11T22:11:00.036Z,10.20
2019-05-11T22:13:30.047Z,10.19
2019-05-11T22:15:59.722Z,10.24
2019-05-11T22:18:31.415Z,10.12
2019-05-11T22:21:00.974Z,10.01
2019-05-11T22:23:30.678Z,9.95
2019-05-11T22:26:00.327Z,9.96
2019-05-11T22:28:30.136Z,10.00
2019-05-11T22:30:59.780Z,9.94
2019-05-11T22:33:29.549Z,9.95
2019-05-11T22:35:59.587Z,9.86
2019-05-11T22:38:30.293Z,9.86
2019-05-11T22:41:00.228Z,9.82
2019-05-11T22:43:29.974Z,9.76
2019-05-11T22:46:00.782Z,9.73
2019-05-11T22:48:30.493Z,9.59
2019-05-11T22:51:00.171Z,9.61
2019-05-11T22:53:43.890Z,9.63
2019-05-11T22:56:01.363Z,9.57
2019-05-11T22:58:31.088Z,9.52
2019-05-11T23:01:00.819Z,9.57
2019-05-11T23:03:30.520Z,9.52
2019-05-11T23:06:00.350Z,9.48
2019-05-11T23:08:30.090Z,9.46
2019-05-11T23:10:59.773Z,9.44
2019-05-11T23:13:29.520Z,9.42
2019-05-11T23:15:59.256Z,9.42
2019-05-11T23:18:28.931Z,9.38
2019-05-11T23:20:58.706Z,9.26
2019-05-11T23:23:28.473Z,9.19
2019-05-11T23:25:58.186Z,9.16
2019-05-11T23:28:28.814Z,9.13
2019-05-11T23:30:58.614Z,9.08
2019-05-11T23:33:28.438Z,9.11
2019-05-11T23:35:58.737Z,9.14
2019-05-11T23:38:28.711Z,9.14
2019-05-11T23:40:58.896Z,9.14
2019-05-11T23:43:30.058Z,9.06
2019-05-11T23:45:59.904Z,9.10
2019-05-11T23:48:29.618Z,9.06
2019-05-11T23:50:59.366Z,9.02
2019-05-11T23:53:29.164Z,9.00
2019-05-11T23:55:58.801Z,8.89
2019-05-11T23:58:28.652Z,8.92
